Time;durP1;ratioP1;P1;durP2;ratioP2;P2;SDS_P1;SDS_P2;PMS_P1;PMS_P2;Temp;Humidity;BMP_temperature;BMP_pressure;BME280_temperature;BME280_humidity;BME280_pressure;Samples;Min_cycle;Max_cycle;Signal;HPM_P1;HPM_P2
2021/10/16 00:02:11;;;;;;;43.55;21.80;;;;;;;1.43;84.61;99682.41;1771231;81;20861;-70
2021/10/16 00:04:41;;;;;;;53.20;24.02;;;;;;;1.41;84.61;99681.03;1745573;81;20999;-70
2021/10/16 00:07:16;;;;;;;56.23;24.98;;;;;;;1.42;84.77;99682.13;1771341;81;21152;-70
2021/10/16 00:09:44;;;;;;;56.63;24.98;;;;;;;1.45;84.86;99685.68;1771251;81;21465;-71
2021/10/16 00:12:17;;;;;;;59.10;24.18;;;;;;;1.47;85.05;99680.02;1771219;81;20968;-70
2021/10/16 00:14:46;;;;;;;57.95;24.87;;;;;;;1.46;85.04;99679.73;1771267;81;20900;-71
2021/10/16 00:17:20;;;;;;;55.67;23.00;;;;;;;1.46;85.13;99672.44;1771204;80;21448;-71
2021/10/16 00:19:53;;;;;;;66.85;25.55;;;;;;;1.48;85.27;99674.36;1745406;81;20869;-69
2021/10/16 00:22:25;;;;;;;;;;;;;;;1.48;85.29;99670.30;1774306;81;21075;-73
2021/10/16 00:24:55;;;;;;;51.95;19.85;;;;;;;1.48;85.27;99674.89;1744475;81;20419;-74
2021/10/16 00:27:30;;;;;;;69.45;26.42;;;;;;;1.47;85.78;99679.48;1771551;81;21036;-74
2021/10/16 00:29:58;;;;;;;54.33;26.00;;;;;;;1.58;86.75;99681.23;1771405;81;21412;-73
2021/10/16 00:32:31;;;;;;;65.85;26.93;;;;;;;1.75;87.38;99678.95;1765860;81;21162;-73
2021/10/16 00:34:56;;;;;;;67.85;27.52;;;;;;;1.92;87.24;99672.37;1771697;81;20841;-72
2021/10/16 00:37:30;;;;;;;60.15;25.32;;;;;;;2.06;86.95;99669.25;1771084;81;20948;-73
2021/10/16 00:39:57;;;;;;;58.23;25.08;;;;;;;2.17;86.70;99675.03;1770720;81;21016;-70
2021/10/16 00:42:29;;;;;;;62.00;26.27;;;;;;;2.25;86.59;99670.50;1771516;81;20902;-71
2021/10/16 00:45:03;;;;;;;57.90;27.07;;;;;;;2.32;86.52;99656.98;1771396;81;21160;-72
2021/10/16 00:47:34;;;;;;;57.65;26.07;;;;;;;2.39;86.20;99660.02;1745157;81;20944;-72
2021/10/16 00:50:07;;;;;;;52.67;25.17;;;;;;;2.40;86.06;99661.11;1771337;81;20924;-72
2021/10/16 00:52:40;;;;;;;57.95;26.17;;;;;;;2.44;86.00;99659.52;1771267;81;20889;-72
2021/10/16 00:55:10;;;;;;;58.42;27.22;;;;;;;2.44;85.85;99654.10;1771286;81;20928;-73
2021/10/16 00:57:37;;;;;;;62.93;25.97;;;;;;;2.47;86.01;99656.30;1770977;81;21125;-71
2021/10/16 01:00:13;;;;;;;60.15;26.70;;;;;;;2.49;85.96;99654.14;1745511;81;21435;-72
2021/10/16 01:02:43;;;;;;;61.33;26.95;;;;;;;2.53;86.06;99653.08;1766655;81;20931;-72
2021/10/16 01:05:15;;;;;;;56.08;27.22;;;;;;;2.55;86.18;99644.97;1770466;81;20877;-71
2021/10/16 01:07:46;;;;;;;61.25;27.50;;;;;;;2.62;86.35;99645.56;1771300;81;20956;-72
2021/10/16 01:10:17;;;;;;;63.63;28.70;;;;;;;2.71;86.44;99645.08;1720954;81;20912;-71
2021/10/16 01:12:49;;;;;;;59.73;28.83;;;;;;;2.76;86.63;99639.69;1771379;81;20873;-71
2021/10/16 01:15:17;;;;;;;61.10;26.65;;;;;;;2.83;86.68;99640.27;1770816;81;20980;-71
2021/10/16 01:17:50;;;;;;;65.20;28.17;;;;;;;2.90;86.66;99644.34;1787041;80;21422;-72
2021/10/16 01:20:32;;;;;;;64.45;28.02;;;;;;;2.95;86.69;99645.73;1787455;80;20903;-71
2021/10/16 01:22:59;;;;;;;60.98;26.82;;;;;;;3.02;86.48;99644.68;1786585;80;22181;-71
2021/10/16 01:25:29;;;;;;;59.60;26.23;;;;;;;3.11;86.25;99639.03;1757632;80;20848;-72
2021/10/16 01:28:02;;;;;;;56.42;27.55;;;;;;;3.19;86.05;99636.63;1788003;80;20947;-71
2021/10/16 01:30:31;;;;;;;52.83;26.05;;;;;;;3.25;85.91;99634.75;1786760;80;20856;-71
2021/10/16 01:33:04;;;;;;;57.20;27.22;;;;;;;3.30;85.84;99628.80;1787812;80;20912;-71
2021/10/16 01:35:35;;;;;;;50.92;25.57;;;;;;;3.36;85.66;99630.18;1786826;80;21696;-71
2021/10/16 01:38:03;;;;;;;59.10;26.50;;;;;;;3.42;85.52;99626.41;1787602;80;21027;-72
2021/10/16 01:40:34;;;;;;;57.15;26.12;;;;;;;3.47;85.29;99633.17;1787793;80;20964;-71
2021/10/16 01:43:06;;;;;;;53.25;25.27;;;;;;;3.53;85.51;99634.28;1787710;80;20936;-70
2021/10/16 01:45:44;;;;;;;52.65;24.85;;;;;;;3.57;85.35;99627.77;1787771;80;20919;-70
2021/10/16 01:48:17;;;;;;;52.10;24.87;;;;;;;3.61;85.12;99627.52;1756809;80;21478;-71
2021/10/16 01:50:46;;;;;;;54.55;25.77;;;;;;;3.66;85.10;99627.53;1754881;80;21010;-70
2021/10/16 01:53:18;;;;;;;52.62;24.45;;;;;;;3.71;85.13;99622.65;1784905;80;20939;-70
2021/10/16 01:55:46;;;;;;;56.98;28.90;;;;;;;3.74;85.07;99625.64;1787345;80;20860;-70
2021/10/16 01:58:16;;;;;;;57.10;26.15;;;;;;;3.79;85.03;99621.58;1786755;80;20939;-70
2021/10/16 02:00:49;;;;;;;50.80;25.68;;;;;;;3.79;85.03;99621.58;1785076;80;21141;-71
2021/10/16 02:03:17;;;;;;;51.65;25.62;;;;;;;3.82;84.93;99613.44;1782945;80;20975;-71
2021/10/16 02:05:53;;;;;;;56.00;25.65;;;;;;;3.86;84.80;99616.70;1784598;80;21017;-70
2021/10/16 02:08:31;;;;;;;51.60;24.50;;;;;;;3.91;84.62;99617.25;1784738;80;20970;-70
2021/10/16 02:11:02;;;;;;;51.80;25.43;;;;;;;3.97;84.61;99618.89;1757024;80;20923;-70
2021/10/16 02:13:36;;;;;;;51.33;24.67;;;;;;;4.02;84.55;99614.00;1786687;80;21490;-69
2021/10/16 02:16:10;;;;;;;57.08;24.77;;;;;;;4.06;84.51;99613.70;1787626;80;20979;-72
2021/10/16 02:18:46;;;;;;;47.90;24.20;;;;;;;4.10;84.57;99614.80;1737392;80;21510;-72
2021/10/16 02:21:20;;;;;;;52.75;24.35;;;;;;;4.12;84.61;99612.08;1787642;80;20932;-73
2021/10/16 02:23:52;;;;;;;49.48;23.95;;;;;;;4.15;84.54;99610.72;1755605;80;20884;-73
2021/10/16 02:26:29;;;;;;;47.17;23.52;;;;;;;4.17;84.61;99613.98;1757201;80;21585;-74
2021/10/16 02:28:57;;;;;;;44.50;22.82;;;;;;;4.18;84.71;99608.27;1787987;80;20888;-73
2021/10/16 02:31:30;;;;;;;55.08;25.48;;;;;;;4.18;84.50;99605.55;1757301;80;20927;-71
2021/10/16 02:33:58;;;;;;;48.17;24.20;;;;;;;4.22;84.36;99614.80;1787694;80;20923;-70
2021/10/16 02:36:30;;;;;;;50.05;24.15;;;;;;;4.24;84.15;99612.62;1756928;80;20951;-70
2021/10/16 02:38:59;;;;;;;48.73;24.23;;;;;;;4.26;83.93;99609.63;1787726;80;21166;-70
2021/10/16 02:41:31;;;;;;;47.53;24.72;;;;;;;4.26;83.77;99610.45;1787115;80;20998;-72
2021/10/16 02:44:00;;;;;;;51.00;25.32;;;;;;;4.28;83.64;99619.14;1787912;80;20911;-72
2021/10/16 02:46:30;;;;;;;43.17;23.38;;;;;;;4.30;83.60;99617.51;1756522;80;20955;-70
2021/10/16 02:49:08;;;;;;;45.38;23.18;;;;;;;4.38;83.88;99613.43;1756987;80;20912;-71
2021/10/16 02:51:38;;;;;;;48.55;24.35;;;;;;;4.47;83.85;99616.69;1787926;80;21518;-71
2021/10/16 02:54:09;;;;;;;43.02;23.18;;;;;;;4.54;83.48;99611.78;1757278;80;20933;-72
2021/10/16 02:56:38;;;;;;;47.55;23.57;;;;;;;4.61;83.26;99609.59;1777232;80;20939;-71
2021/10/16 02:59:09;;;;;;;41.42;21.70;;;;;;;4.64;82.96;99611.73;1787504;80;20939;-72
2021/10/16 03:01:42;;;;;;;43.42;21.57;;;;;;;4.64;82.96;99611.73;1787371;80;20880;-72
2021/10/16 03:04:11;;;;;;;47.33;22.00;;;;;;;4.68;82.97;99606.56;1780621;80;21905;-73
2021/10/16 03:06:39;;;;;;;39.85;21.37;;;;;;;4.72;83.40;99602.20;1756540;80;20854;-74
2021/10/16 03:09:17;;;;;;;44.23;21.62;;;;;;;4.72;83.51;99591.87;1727310;81;20877;-75
2021/10/16 03:11:52;;;;;;;43.45;23.42;;;;;;;4.75;83.56;99594.03;1756663;81;21500;-71
2021/10/16 03:14:26;;;;;;;48.17;23.65;;;;;;;4.74;83.63;99593.22;1757108;81;20901;-71
2021/10/16 03:16:56;;;;;;;44.35;22.82;;;;;;;4.73;83.90;99588.06;1757614;81;21546;-70
2021/10/16 03:19:37;;;;;;;48.13;24.12;;;;;;;4.74;83.88;99591.05;1732204;81;20984;-71
2021/10/16 03:22:10;;;;;;;45.98;22.93;;;;;;;4.72;83.95;99595.40;1759679;81;20919;-71
2021/10/16 03:24:41;;;;;;;43.20;23.55;;;;;;;4.70;84.17;99589.97;1759585;81;20974;-70
2021/10/16 03:27:11;;;;;;;54.88;24.57;;;;;;;4.70;84.17;99589.97;1759660;81;20942;-70
2021/10/16 03:29:40;;;;;;;51.87;26.07;;;;;;;4.74;84.08;99592.41;1760092;81;21090;-70
2021/10/16 03:32:10;;;;;;;42.15;23.57;;;;;;;4.77;83.95;99591.31;1759643;81;20916;-71
2021/10/16 03:34:42;;;;;;;46.10;24.02;;;;;;;4.80;83.96;99589.40;1759611;81;21417;-71
2021/10/16 03:37:12;;;;;;;43.87;22.85;;;;;;;4.83;84.10;99591.56;1759500;81;20882;-71
2021/10/16 03:39:44;;;;;;;46.60;23.30;;;;;;;4.87;84.06;99593.19;1759624;81;20933;-71
2021/10/16 03:42:16;;;;;;;;;;;;;;;4.89;83.87;99580.13;1762114;81;21139;-71
2021/10/16 03:44:53;;;;;;;49.88;23.87;;;;;;;4.96;83.91;99588.80;1730469;81;20087;-70
2021/10/16 03:47:24;;;;;;;47.65;23.55;;;;;;;4.96;83.91;99588.80;1759700;80;20913;-71
2021/10/16 03:49:59;;;;;;;44.30;22.75;;;;;;;4.99;83.88;99585.53;1731545;81;20940;-72
2021/10/16 03:52:32;;;;;;;45.80;22.93;;;;;;;5.06;84.41;99594.75;1773855;80;20919;-73
2021/10/16 03:54:59;;;;;;;46.10;24.40;;;;;;;5.11;84.29;99592.02;1791055;80;21825;-70
2021/10/16 03:57:37;;;;;;;48.50;24.07;;;;;;;5.15;83.81;99599.89;1777323;80;21007;-70
2021/10/16 04:00:11;;;;;;;40.65;22.70;;;;;;;5.17;83.58;99602.60;1731862;81;20948;-70
2021/10/16 04:02:41;;;;;;;45.88;23.60;;;;;;;5.21;83.16;99594.12;1731974;81;20893;-70
2021/10/16 04:05:10;;;;;;;50.78;24.77;;;;;;;5.21;83.16;99594.12;1744462;80;20899;-69
2021/10/16 04:07:38;;;;;;;47.90;25.10;;;;;;;5.22;83.13;99588.13;1777921;80;21536;-69
2021/10/16 04:10:13;;;;;;;42.90;22.70;;;;;;;5.25;83.28;99588.38;1761816;80;20951;-71
2021/10/16 04:12:42;;;;;;;45.30;22.85;;;;;;;5.29;83.10;99590.81;1790809;80;21450;-68
2021/10/16 04:15:13;;;;;;;44.23;24.02;;;;;;;5.31;83.01;99585.91;1762157;80;20982;-68
2021/10/16 04:17:49;;;;;;;48.00;25.72;;;;;;;5.34;82.89;99585.08;1789009;80;20939;-74
2021/10/16 04:20:17;;;;;;;47.40;23.02;;;;;;;5.37;82.80;99590.78;1756662;80;21010;-76
2021/10/16 04:22:48;;;;;;;45.73;25.10;;;;;;;5.39;82.81;99589.14;1787098;80;21515;-72
2021/10/16 04:25:17;;;;;;;50.37;24.73;;;;;;;5.41;82.71;99592.39;1787914;80;20928;-71
2021/10/16 04:27:46;;;;;;;51.90;23.92;;;;;;;5.44;82.67;99589.11;1782229;79;20919;-71
2021/10/16 04:30:23;;;;;;;54.48;23.47;;;;;;;5.45;82.71;99592.09;1785982;80;21554;-69
2021/10/16 04:32:59;;;;;;;45.65;23.02;;;;;;;5.46;82.90;99583.65;1787519;80;20876;-69
2021/10/16 04:35:33;;;;;;;46.40;22.77;;;;;;;5.48;83.29;99580.10;1787797;80;20918;-69
2021/10/16 04:38:02;;;;;;;42.83;23.75;;;;;;;5.50;83.62;99579.81;1787641;80;21391;-69
2021/10/16 04:40:30;;;;;;;48.05;25.92;;;;;;;5.51;83.64;99588.25;1787192;80;20911;-69
2021/10/16 04:43:01;;;;;;;45.28;23.38;;;;;;;5.53;83.39;99590.15;1788045;80;20880;-69
2021/10/16 04:45:33;;;;;;;48.07;24.90;;;;;;;5.57;83.62;99586.58;1788086;80;21143;-69
2021/10/16 04:48:07;;;;;;;45.05;23.22;;;;;;;5.60;83.57;99587.93;1754706;80;21544;-71
2021/10/16 04:50:37;;;;;;;45.17;23.50;;;;;;;5.62;83.99;99585.73;1756793;81;20962;-71
2021/10/16 04:53:10;;;;;;;46.68;24.32;;;;;;;5.66;84.50;99581.36;1756855;81;20903;-70
2021/10/16 04:55:40;;;;;;;43.65;23.20;;;;;;;5.67;84.67;99578.08;1756642;81;21410;-70
2021/10/16 04:58:10;;;;;;;52.38;25.62;;;;;;;5.68;85.15;99581.07;1756329;81;21150;-71
2021/10/16 05:00:41;;;;;;;57.23;24.00;;;;;;;5.67;85.49;99582.98;1774363;80;20844;-72
2021/10/16 05:03:13;;;;;;;43.68;23.15;;;;;;;5.70;85.90;99575.61;1756168;80;21025;-74
2021/10/16 05:05:43;;;;;;;47.48;25.10;;;;;;;5.70;86.44;99569.34;1781106;80;20923;-73
2021/10/16 05:08:11;;;;;;;46.68;26.00;;;;;;;5.68;86.76;99580.52;1755746;81;21531;-72
2021/10/16 05:10:45;;;;;;;62.03;35.17;;;;;;;5.68;86.95;99581.07;1756064;81;21108;-74
2021/10/16 05:13:16;;;;;;;66.50;39.40;;;;;;;5.70;86.94;99586.50;1752556;81;20944;-72
2021/10/16 05:15:48;;;;;;;103.25;69.07;;;;;;;5.72;86.95;99580.23;1702673;81;20893;-73
2021/10/16 05:18:14;;;;;;;97.37;62.45;;;;;;;5.72;87.12;99577.50;1755333;81;21480;-72
2021/10/16 05:20:47;;;;;;;97.35;66.25;;;;;;;5.72;87.35;99582.95;1753300;80;21019;-74
2021/10/16 05:23:16;;;;;;;88.70;57.53;;;;;;;5.74;87.57;99590.84;1756135;80;21053;-70
2021/10/16 05:25:47;;;;;;;70.27;45.07;;;;;;;5.76;87.68;99589.46;1754834;81;20984;-70
2021/10/16 05:28:14;;;;;;;72.08;45.30;;;;;;;5.79;87.63;99592.13;1755203;81;20964;-70
2021/10/16 05:30:41;;;;;;;71.70;40.92;;;;;;;5.82;87.79;99591.57;1757203;81;20893;-81
2021/10/16 05:33:08;;;;;;;70.30;36.33;;;;;;;5.86;87.99;99580.38;1726947;81;21451;-79
2021/10/16 05:35:35;;;;;;;63.15;35.00;;;;;;;5.89;88.03;99577.92;1756574;80;21530;-77
2021/10/16 05:38:02;;;;;;;67.85;35.00;;;;;;;5.93;88.02;99584.44;1756787;80;21300;-80
2021/10/16 05:40:30;;;;;;;56.77;30.35;;;;;;;6.00;87.93;99581.94;1756475;81;20846;-72
2021/10/16 05:42:57;;;;;;;52.90;29.42;;;;;;;6.06;87.98;99582.16;1755753;81;21376;-78
2021/10/16 05:45:23;;;;;;;62.85;28.10;;;;;;;6.11;87.78;99578.03;1756154;80;21012;-71
2021/10/16 05:47:50;;;;;;;56.25;29.55;;;;;;;6.15;87.71;99585.35;1765412;80;22136;-73
2021/10/16 05:50:17;;;;;;;57.48;27.73;;;;;;;6.20;87.60;99588.59;1785732;80;20943;-71
2021/10/16 05:52:44;;;;;;;51.23;26.93;;;;;;;6.26;87.81;99597.80;1788298;80;20975;-71
2021/10/16 05:55:11;;;;;;;45.03;26.23;;;;;;;6.31;87.53;99595.58;1790664;80;21013;-76
2021/10/16 05:57:40;;;;;;;46.85;26.00;;;;;;;6.34;87.24;99590.11;1787087;80;20919;-78
2021/10/16 06:00:09;;;;;;;47.67;24.05;;;;;;;6.39;86.68;99598.20;1769739;80;21079;-75
2021/10/16 06:02:47;;;;;;;47.03;25.70;;;;;;;6.41;85.86;99606.37;1769503;80;21024;-74
2021/10/16 06:05:16;;;;;;;42.58;23.62;;;;;;;6.44;85.41;99604.98;1769157;81;20882;-74
2021/10/16 06:07:43;;;;;;;45.52;23.32;;;;;;;6.46;85.01;99602.23;1769465;81;20980;-74
2021/10/16 06:10:10;;;;;;;41.77;23.67;;;;;;;6.48;84.53;99601.39;1769311;80;21738;-70
2021/10/16 06:12:37;;;;;;;41.90;24.23;;;;;;;6.51;84.39;99599.45;1769512;81;21126;-71
2021/10/16 06:15:06;;;;;;;43.92;23.73;;;;;;;6.55;84.20;99604.59;1769119;81;21627;-71
2021/10/16 06:17:33;;;;;;;43.45;23.22;;;;;;;6.59;84.11;99595.29;1769604;81;21504;-70
2021/10/16 06:20:02;;;;;;;43.30;23.10;;;;;;;6.61;83.81;99599.36;1772756;80;21544;-71
2021/10/16 06:22:30;;;;;;;47.03;23.73;;;;;;;6.67;83.83;99593.85;1772813;80;20908;-71
2021/10/16 06:24:57;;;;;;;45.15;23.25;;;;;;;6.71;83.77;99590.81;1772655;81;21508;-71
2021/10/16 06:27:26;;;;;;;42.15;21.70;;;;;;;6.76;83.61;99588.03;1774676;80;20969;-71
2021/10/16 06:29:53;;;;;;;48.58;22.62;;;;;;;6.80;83.57;99593.98;1780700;80;21033;-71
2021/10/16 06:32:19;;;;;;;41.60;22.13;;;;;;;6.84;83.07;99588.76;1790718;80;20942;-71
2021/10/16 06:34:48;;;;;;;42.53;23.12;;;;;;;6.86;82.87;99589.28;1791111;80;20852;-70
2021/10/16 06:37:14;;;;;;;41.00;21.87;;;;;;;6.88;82.81;99594.71;1790739;80;22132;-70
2021/10/16 06:39:41;;;;;;;37.98;21.52;;;;;;;6.90;82.84;99592.50;1791044;80;20923;-70
2021/10/16 06:42:08;;;;;;;42.95;21.40;;;;;;;6.91;82.70;99599.59;1789569;80;20923;-70
2021/10/16 06:44:53;;;;;;;42.35;22.17;;;;;;;6.91;82.87;99592.77;1772956;80;20972;-70
2021/10/16 06:47:32;;;;;;;37.90;20.75;;;;;;;6.91;82.77;99594.12;1790435;80;21022;-71
2021/10/16 06:50:00;;;;;;;41.50;23.07;;;;;;;6.92;82.87;99594.95;1789606;80;21511;-71
2021/10/16 06:52:27;;;;;;;53.68;22.65;;;;;;;6.93;83.00;99589.75;1790659;80;20931;-71
2021/10/16 06:54:54;;;;;;;41.88;22.62;;;;;;;6.96;83.09;99591.86;1791290;80;20975;-70
2021/10/16 06:57:20;;;;;;;51.02;25.15;;;;;;;7.00;83.15;99597.56;1790812;80;20923;-71
2021/10/16 06:59:47;;;;;;;43.42;24.75;;;;;;;7.04;83.24;99604.06;1791052;80;20848;-71
2021/10/16 07:02:13;;;;;;;43.95;24.57;;;;;;;7.07;83.16;99603.48;1785786;80;22163;-73
2021/10/16 07:04:53;;;;;;;50.73;24.80;;;;;;;7.10;83.04;99604.27;1759644;81;20950;-72
2021/10/16 07:07:20;;;;;;;45.48;25.02;;;;;;;7.12;83.10;99597.96;1760077;80;21006;-72
2021/10/16 07:09:49;;;;;;;41.98;23.32;;;;;;;7.15;83.08;99598.74;1759584;81;20943;-73
2021/10/16 07:12:16;;;;;;;43.10;22.37;;;;;;;7.18;82.98;99598.16;1760037;81;20891;-70
2021/10/16 07:14:43;;;;;;;48.65;25.97;;;;;;;7.20;82.84;99592.67;1772657;80;21473;-71
2021/10/16 07:17:10;;;;;;;45.15;24.75;;;;;;;7.24;82.94;99601.09;1772747;80;21042;-71
2021/10/16 07:19:37;;;;;;;38.58;22.67;;;;;;;7.25;82.71;99593.16;1778339;80;20891;-71
2021/10/16 07:22:04;;;;;;;42.00;22.87;;;;;;;7.29;82.66;99601.84;1770632;80;20981;-71
2021/10/16 07:24:30;;;;;;;42.17;22.45;;;;;;;7.32;82.59;99588.70;1775816;80;21093;-71
2021/10/16 07:26:57;;;;;;;44.55;24.05;;;;;;;7.34;82.62;99586.49;1777944;80;21562;-71
2021/10/16 07:29:24;;;;;;;66.00;31.77;;;;;;;7.35;82.64;99579.38;1743067;81;20932;-71
2021/10/16 07:31:52;;;;;;;76.50;35.58;;;;;;;7.39;82.68;99587.23;1741518;81;20992;-72
2021/10/16 07:34:19;;;;;;;51.20;25.88;;;;;;;7.44;82.75;99590.45;1747862;81;20944;-72
2021/10/16 07:36:46;;;;;;;46.65;25.50;;;;;;;7.52;82.33;99598.78;1745350;81;21037;-73
2021/10/16 07:39:13;;;;;;;38.58;20.43;;;;;;;7.60;82.36;99590.48;1745717;81;21530;-72
2021/10/16 07:41:40;;;;;;;45.65;24.27;;;;;;;7.70;81.93;99598.53;1714011;83;21530;-72
2021/10/16 07:44:07;;;;;;;42.78;21.93;;;;;;;7.78;81.95;99595.69;1770193;80;21428;-72
2021/10/16 07:46:34;;;;;;;44.75;23.52;;;;;;;7.85;81.36;99590.66;1774466;80;21041;-72
2021/10/16 07:49:01;;;;;;;50.30;25.77;;;;;;;7.90;81.20;99594.13;1775025;80;21073;-73
2021/10/16 07:51:28;;;;;;;48.35;24.20;;;;;;;7.97;80.78;99610.72;1742718;81;22115;-69
2021/10/16 07:53:54;;;;;;;51.73;24.82;;;;;;;8.01;80.47;99605.73;1740611;80;21552;-70
2021/10/16 07:56:21;;;;;;;50.08;25.05;;;;;;;8.08;80.56;99612.19;1746775;81;20988;-70
2021/10/16 07:58:47;;;;;;;44.90;23.73;;;;;;;8.16;80.64;99615.03;1744430;81;20985;-70
2021/10/16 08:01:13;;;;;;;36.23;19.00;;;;;;;8.25;80.04;99610.50;1712473;82;21623;-70
2021/10/16 08:03:40;;;;;;;32.15;18.98;;;;;;;8.35;79.78;99605.45;1742930;81;21575;-70
2021/10/16 08:06:07;;;;;;;26.37;16.48;;;;;;;8.45;78.97;99600.36;1743389;81;21019;-72
2021/10/16 08:08:35;;;;;;;31.95;18.35;;;;;;;8.54;78.63;99609.51;1740529;81;20938;-72
2021/10/16 08:11:02;;;;;;;37.75;19.70;;;;;;;8.63;77.95;99615.10;1746565;81;21026;-71
2021/10/16 08:13:30;;;;;;;30.25;17.65;;;;;;;8.70;77.43;99611.39;1751465;81;20904;-70
2021/10/16 08:15:58;;;;;;;30.45;17.70;;;;;;;8.75;76.57;99600.34;1729993;82;21997;-74
2021/10/16 08:18:25;;;;;;;33.50;17.60;;;;;;;8.80;77.04;99595.59;1722775;83;21561;-74
2021/10/16 08:20:51;;;;;;;46.13;20.43;;;;;;;8.87;77.05;99594.63;1731509;83;20983;-73
2021/10/16 08:23:18;;;;;;;35.75;18.92;;;;;;;8.90;76.08;99598.13;1730689;83;21062;-74
2021/10/16 08:25:45;;;;;;;36.17;17.77;;;;;;;8.91;75.87;99590.73;1731084;83;21025;-75
2021/10/16 08:28:13;;;;;;;33.02;18.57;;;;;;;8.88;75.91;99592.16;1730899;82;21192;-74
2021/10/16 08:30:44;;;;;;;36.60;18.80;;;;;;;8.89;75.84;99597.07;1755532;81;21019;-75
2021/10/16 08:33:10;;;;;;;30.90;16.70;;;;;;;8.88;75.88;99599.55;1787382;80;20892;-75
2021/10/16 08:35:37;;;;;;;30.35;16.27;;;;;;;8.90;76.04;99604.17;1786636;80;21006;-80
2021/10/16 08:38:04;;;;;;;30.70;16.67;;;;;;;8.98;75.72;99603.47;1787030;80;20951;-72
2021/10/16 08:40:32;;;;;;;30.72;16.73;;;;;;;9.05;75.45;99590.18;1787530;80;21228;-69
2021/10/16 08:42:59;;;;;;;31.87;16.25;;;;;;;9.09;74.67;99586.28;1777037;80;21001;-72
2021/10/16 08:45:25;;;;;;;26.82;16.32;;;;;;;9.07;74.61;99590.69;1731368;80;21041;-69
2021/10/16 08:47:52;;;;;;;27.62;15.18;;;;;;;9.08;74.85;99589.58;1787074;80;21045;-74
2021/10/16 08:50:20;;;;;;;30.20;15.63;;;;;;;9.13;74.80;99590.03;1786809;80;20935;-67
2021/10/16 08:52:47;;;;;;;28.52;16.45;;;;;;;9.18;74.66;99590.73;1784318;80;21161;-73
2021/10/16 08:55:15;;;;;;;26.82;14.70;;;;;;;9.32;74.72;99585.22;1769196;81;20926;-76
2021/10/16 08:57:43;;;;;;;26.87;14.90;;;;;;;9.48;74.48;99581.03;1768969;80;21532;-75
2021/10/16 09:00:53;;;;;;;27.93;16.05;;;;;;;9.66;73.64;99582.02;1768801;80;21493;-74
2021/10/16 09:03:31;;;;;;;30.17;16.12;;;;;;;9.80;73.38;99573.75;1768683;80;21017;-76
2021/10/16 09:06:25;;;;;;;25.77;14.73;;;;;;;9.93;71.72;99587.95;1768516;81;21957;-75
2021/10/16 09:09:05;;;;;;;29.07;16.10;;;;;;;9.91;71.29;99585.52;1768267;81;20901;-75
2021/10/16 09:11:38;;;;;;;28.10;16.48;;;;;;;9.89;71.40;99589.69;1769147;81;20934;-75
2021/10/16 09:14:15;;;;;;;30.97;17.80;;;;;;;9.87;71.31;99588.63;1769137;80;20965;-74
2021/10/16 09:16:57;;;;;;;34.98;17.62;;;;;;;9.89;71.46;99598.72;1769688;80;20953;-78
2021/10/16 09:19:35;;;;;;;28.07;15.45;;;;;;;9.94;71.56;99602.72;1771084;81;21764;-75
2021/10/16 09:22:06;;;;;;;29.77;15.70;;;;;;;10.03;71.81;99611.58;1771513;80;20965;-71
2021/10/16 09:24:43;;;;;;;28.00;15.93;;;;;;;10.08;71.29;99608.16;1748358;81;33772;-74
2021/10/16 09:27:17;;;;;;;29.98;15.48;;;;;;;10.18;71.13;99609.84;1772547;80;21001;-73
2021/10/16 09:29:51;;;;;;;31.42;14.73;;;;;;;10.48;71.21;99606.91;1772693;80;21520;-69
2021/10/16 09:32:24;;;;;;;32.80;14.53;;;;;;;10.89;69.51;99594.30;1772416;80;21539;-73
2021/10/16 09:34:59;;;;;;;26.82;14.75;;;;;;;11.22;68.28;99597.47;1748838;81;20890;-68
2021/10/16 09:37:25;;;;;;;31.10;14.40;;;;;;;11.75;67.02;99597.80;1772657;80;20974;-72
2021/10/16 09:39:57;;;;;;;28.90;14.30;;;;;;;12.24;65.77;99599.27;1789906;80;20998;-71
2021/10/16 09:42:39;;;;;;;24.32;14.33;;;;;;;12.62;64.33;99604.08;1775565;80;20880;-71
2021/10/16 09:45:08;;;;;;;24.45;14.80;;;;;;;12.94;61.23;99604.84;1782481;80;21166;-71
2021/10/16 09:47:35;;;;;;;25.65;14.18;;;;;;;13.19;61.13;99604.53;1762772;80;21041;-72
2021/10/16 09:50:09;;;;;;;30.20;13.55;;;;;;;13.66;60.37;99600.27;1764365;80;20970;-74
2021/10/16 09:52:38;;;;;;;22.82;13.48;;;;;;;14.13;57.25;99580.16;1790906;80;21066;-75
2021/10/16 09:55:12;;;;;;;30.75;15.88;;;;;;;14.50;56.29;99575.59;1753344;81;21425;-73
2021/10/16 09:57:46;;;;;;;33.20;15.95;;;;;;;14.69;55.52;99564.02;1721236;82;21517;-72
2021/10/16 10:00:15;;;;;;;26.25;14.43;;;;;;;14.87;55.20;99569.57;1753873;81;21001;-70
2021/10/16 10:02:48;;;;;;;26.93;13.68;;;;;;;15.00;54.07;99577.30;1696221;83;21537;-69
2021/10/16 10:05:14;;;;;;;29.05;15.03;;;;;;;14.92;53.59;99581.78;1720522;83;20944;-71
2021/10/16 10:07:42;;;;;;;26.05;15.03;;;;;;;14.80;53.45;99577.05;1731532;82;20990;-73
2021/10/16 10:10:11;;;;;;;23.00;14.65;;;;;;;14.57;54.12;99570.89;1731524;82;21161;-72
2021/10/16 10:12:38;;;;;;;22.27;14.38;;;;;;;14.31;54.85;99570.58;1728284;82;20923;-70
2021/10/16 10:15:08;;;;;;;24.63;15.65;;;;;;;14.19;55.20;99581.56;1717918;82;20991;-71
2021/10/16 10:17:36;;;;;;;22.27;14.28;;;;;;;14.06;55.39;99576.56;1738333;81;21482;-71
2021/10/16 10:20:09;;;;;;;28.90;15.65;;;;;;;14.07;55.46;99579.56;1712743;82;20983;-71
2021/10/16 10:22:37;;;;;;;26.02;13.88;;;;;;;14.34;55.45;99571.27;1713016;83;21847;-72
2021/10/16 10:25:15;;;;;;;25.27;14.65;;;;;;;14.70;54.20;99565.63;1713725;83;21003;-72
2021/10/16 10:27:44;;;;;;;25.15;13.93;;;;;;;14.93;54.02;99561.28;1711783;83;21043;-72
2021/10/16 10:30:39;;;;;;;28.90;17.90;;;;;;;15.19;52.58;99562.31;1773323;80;21008;-72
2021/10/16 10:33:21;;;;;;;31.95;18.32;;;;;;;15.33;52.54;99566.91;1772227;80;21129;-72
2021/10/16 10:36:19;;;;;;;23.15;14.30;;;;;;;15.74;52.07;99563.05;1773160;80;21172;-71
2021/10/16 10:38:46;;;;;;;23.12;15.20;;;;;;;16.21;49.88;99553.30;1745072;81;21023;-72
2021/10/16 10:41:31;;;;;;;21.95;14.43;;;;;;;16.52;49.11;99561.70;1770827;80;21478;-72
2021/10/16 10:44:00;;;;;;;21.97;14.50;;;;;;;16.58;48.39;99546.42;1747138;81;21107;-72
2021/10/16 10:46:29;;;;;;;22.35;14.00;;;;;;;16.58;48.26;99542.84;1742285;81;21006;-72
2021/10/16 10:49:10;;;;;;;19.05;12.68;;;;;;;16.51;48.19;99531.80;1740292;81;21354;-70
2021/10/16 10:51:38;;;;;;;20.17;12.65;;;;;;;16.47;47.90;99537.82;1771162;80;20975;-71
2021/10/16 10:54:14;;;;;;;21.80;13.08;;;;;;;16.45;48.45;99537.95;1765770;80;21536;-73
2021/10/16 10:56:42;;;;;;;22.50;12.65;;;;;;;16.70;48.19;99526.17;1743183;81;20997;-72
2021/10/16 10:59:10;;;;;;;21.57;12.55;;;;;;;17.04;47.76;99528.20;1773389;80;21541;-71
2021/10/16 11:01:52;;;;;;;19.67;12.00;;;;;;;17.38;46.63;99531.34;1773259;80;21475;-71
2021/10/16 11:04:47;;;;;;;20.02;12.58;;;;;;;17.62;45.18;99523.36;1771369;80;21031;-72
2021/10/16 11:07:20;;;;;;;19.77;12.85;;;;;;;17.77;44.58;99527.51;1768847;80;21053;-72
2021/10/16 11:09:46;;;;;;;20.08;11.78;;;;;;;17.83;44.63;99521.08;1768822;80;21521;-73
2021/10/16 11:12:14;;;;;;;18.20;11.83;;;;;;;17.94;44.05;99514.33;1771680;80;21548;-74
2021/10/16 11:14:42;;;;;;;38.60;21.15;;;;;;;18.08;43.84;99511.27;1771294;80;21580;-74
2021/10/16 11:17:14;;;;;;;19.23;12.37;;;;;;;18.22;43.50;99505.18;1770089;80;21445;-73
2021/10/16 11:19:53;;;;;;;21.20;11.93;;;;;;;18.42;42.94;99508.73;1770422;80;21468;-79
2021/10/16 11:22:22;;;;;;;17.20;11.55;;;;;;;18.59;43.09;99503.25;1775851;80;21041;-78
2021/10/16 11:24:49;;;;;;;18.77;11.70;;;;;;;18.70;41.81;99501.49;1771406;80;21608;-73
2021/10/16 11:27:22;;;;;;;22.70;12.35;;;;;;;18.64;42.14;99505.17;1773718;80;21000;-73
2021/10/16 11:29:49;;;;;;;14.63;11.18;;;;;;;18.52;42.27;99504.52;1772976;80;21079;-73
2021/10/16 11:32:22;;;;;;;23.50;13.40;;;;;;;18.45;41.66;99506.02;1775022;80;21034;-74
2021/10/16 11:35:07;;;;;;;25.05;10.75;;;;;;;18.29;42.45;99504.52;1775800;80;20979;-72
2021/10/16 11:37:45;;;;;;;16.57;11.25;;;;;;;18.29;42.62;99501.15;1769015;80;21518;-72
2021/10/16 11:40:20;;;;;;;16.95;10.35;;;;;;;18.12;42.27;99497.44;1775648;80;21140;-73
2021/10/16 11:42:59;;;;;;;24.57;11.60;;;;;;;17.88;42.71;99498.58;1775888;80;20947;-74